createdAt,value
2022-12-09T00:00:33.520Z,6.07
2022-12-09T00:01:41.052Z,7.13
2022-12-09T00:02:44.828Z,5.05
2022-12-09T00:03:49.042Z,6.10
2022-12-09T00:04:54.921Z,5.10
2022-12-09T00:05:59.938Z,5.25
2022-12-09T00:07:10.337Z,5.45
2022-12-09T00:08:16.429Z,5.65
2022-12-09T00:09:20.750Z,6.03
2022-12-09T00:10:24.563Z,5.90
2022-12-09T00:11:28.480Z,5.85
2022-12-09T00:12:32.068Z,7.22
2022-12-09T00:13:36.487Z,6.88
2022-12-09T00:14:40.185Z,5.18
2022-12-09T00:15:44.016Z,6.70
2022-12-09T00:16:47.836Z,6.97
2022-12-09T00:17:52.340Z,5.70
2022-12-09T00:18:57.648Z,5.90
2022-12-09T00:20:01.598Z,5.95
2022-12-09T00:21:29.713Z,5.72
2022-12-09T00:22:36.403Z,5.85
2022-12-09T00:23:42.392Z,7.07
2022-12-09T00:24:53.133Z,6.65
2022-12-09T00:26:13.514Z,6.78
2022-12-09T00:27:21.455Z,4.28
2022-12-09T00:28:26.572Z,5.55
2022-12-09T00:29:35.565Z,6.25
2022-12-09T00:30:42.440Z,6.63
2022-12-09T00:31:46.154Z,5.30
2022-12-09T00:32:50.037Z,5.60
2022-12-09T00:34:07.302Z,6.38
2022-12-09T00:35:21.473Z,7.13
2022-12-09T00:36:31.691Z,6.63
2022-12-09T00:37:36.441Z,6.80
2022-12-09T00:38:56.347Z,6.65
2022-12-09T00:40:00.507Z,6.43
2022-12-09T00:41:29.448Z,7.53
2022-12-09T00:42:42.269Z,6.57
2022-12-09T00:44:03.227Z,5.25
2022-12-09T00:45:16.126Z,7.13
2022-12-09T00:46:26.063Z,5.32
2022-12-09T00:48:58.302Z,7.45
2022-12-09T00:50:09.132Z,6.28
2022-12-09T00:51:29.616Z,6.10
2022-12-09T00:52:33.596Z,5.22
2022-12-09T00:53:41.179Z,6.25
2022-12-09T00:54:51.781Z,5.43
2022-12-09T00:56:02.279Z,5.32
2022-12-09T00:57:15.358Z,6.65
2022-12-09T00:58:31.339Z,5.95
2022-12-09T00:59:47.789Z,6.45
2022-12-09T01:00:58.499Z,6.22
2022-12-09T01:02:15.841Z,6.07
2022-12-09T01:03:24.187Z,5.65
2022-12-09T01:04:28.061Z,6.90
2022-12-09T01:05:36.849Z,4.90
2022-12-09T01:06:53.388Z,6.47
2022-12-09T01:07:57.443Z,6.60
2022-12-09T01:09:14.008Z,6.80
2022-12-09T01:10:52.182Z,7.85
2022-12-09T01:12:13.208Z,6.32
2022-12-09T01:13:19.500Z,6.10
2022-12-09T01:14:27.891Z,7.22
2022-12-09T01:15:41.033Z,7.50
2022-12-09T01:16:45.744Z,7.18
2022-12-09T01:17:56.131Z,5.97
2022-12-09T01:19:05.127Z,7.93
2022-12-09T01:20:15.096Z,7.78
2022-12-09T01:21:20.337Z,6.95
2022-12-09T01:22:26.947Z,7.85
2022-12-09T01:23:36.548Z,6.22
2022-12-09T01:24:41.630Z,6.55
2022-12-09T01:25:52.829Z,8.45
2022-12-09T01:26:56.388Z,9.18
2022-12-09T01:28:00.980Z,7.68
2022-12-09T01:29:18.126Z,6.82
2022-12-09T01:30:30.205Z,7.80
2022-12-09T01:31:39.974Z,7.32
2022-12-09T01:32:55.520Z,8.70
2022-12-09T01:33:59.392Z,8.48
2022-12-09T01:35:08.105Z,7.32
2022-12-09T01:36:29.066Z,6.95
2022-12-09T01:37:35.252Z,7.07
2022-12-09T01:38:57.637Z,7.10
2022-12-09T01:40:20.287Z,7.70
2022-12-09T01:41:26.358Z,7.35
2022-12-09T01:42:34.645Z,7.05
2022-12-09T01:43:42.219Z,6.63
2022-12-09T01:45:32.805Z,8.43
2022-12-09T01:46:46.941Z,8.57
2022-12-09T01:48:16.708Z,8.40
2022-12-09T01:49:57.207Z,6.70
2022-12-09T01:51:16.965Z,6.63
2022-12-09T01:52:27.451Z,9.27
2022-12-09T01:53:41.639Z,9.07
2022-12-09T01:54:54.709Z,8.32
2022-12-09T01:56:11.418Z,9.18
2022-12-09T01:57:18.755Z,7.70
2022-12-09T01:58:29.770Z,8.88
2022-12-09T01:59:36.846Z,6.25
2022-12-09T02:00:46.977Z,7.63
2022-12-09T02:02:00.244Z,7.82
2022-12-09T02:03:17.299Z,8.45
2022-12-09T02:04:28.234Z,7.93
2022-12-09T02:05:32.436Z,7.45
2022-12-09T02:06:41.027Z,9.25
2022-12-09T02:07:44.676Z,7.90
2022-12-09T02:08:51.466Z,7.93
2022-12-09T02:09:55.112Z,6.97
2022-12-09T02:11:06.907Z,7.95
2022-12-09T02:12:24.418Z,7.35
2022-12-09T02:13:37.567Z,7.38
2022-12-09T02:15:18.628Z,8.20
2022-12-09T02:16:30.742Z,7.70
2022-12-09T02:17:56.050Z,7.32
2022-12-09T02:20:02.025Z,7.05
2022-12-09T02:21:49.825Z,7.75
2022-12-09T02:23:44.720Z,6.38
2022-12-09T02:25:43.892Z,8.32
2022-12-09T02:27:20.826Z,6.47
2022-12-09T02:28:40.411Z,5.65
2022-12-09T02:30:19.509Z,7.10
2022-12-09T02:32:06.131Z,8.05
2022-12-09T02:33:36.721Z,6.30
2022-12-09T02:35:04.238Z,5.32
2022-12-09T02:36:26.776Z,7.80
2022-12-09T02:37:59.545Z,6.97
2022-12-09T02:39:04.026Z,7.82
2022-12-09T02:40:46.636Z,7.47
2022-12-09T02:42:07.076Z,7.75
2022-12-09T02:43:13.783Z,8.05
2022-12-09T02:44:23.681Z,5.97
2022-12-09T02:45:31.707Z,6.38
2022-12-09T02:46:36.980Z,6.50
2022-12-09T02:47:48.889Z,7.15
2022-12-09T02:48:57.922Z,6.95
2022-12-09T02:50:14.306Z,6.53
2022-12-09T02:51:22.607Z,6.97
2022-12-09T02:52:28.393Z,6.93
2022-12-09T02:53:37.580Z,7.65
2022-12-09T02:54:43.910Z,9.05
2022-12-09T02:55:50.481Z,8.13
2022-12-09T02:57:03.988Z,6.47
2022-12-09T02:58:07.954Z,7.22
2022-12-09T02:59:35.622Z,7.60
2022-12-09T03:00:49.295Z,6.45
2022-12-09T03:02:49.724Z,7.20
2022-12-09T03:03:55.882Z,7.25
2022-12-09T03:05:53.556Z,7.00
2022-12-09T03:07:31.746Z,7.55
2022-12-09T03:09:02.622Z,8.57
2022-12-09T03:10:23.010Z,7.05
2022-12-09T03:11:33.599Z,10.00
2022-12-09T03:12:44.023Z,5.97
2022-12-09T03:14:12.583Z,7.80
2022-12-09T03:15:30.215Z,6.82
2022-12-09T03:16:55.297Z,7.13
2022-12-09T03:20:01.045Z,8.35
2022-12-09T03:21:09.736Z,7.13
2022-12-09T03:22:27.940Z,6.60
2022-12-09T03:23:43.851Z,7.10
2022-12-09T03:25:20.762Z,8.25
2022-12-09T03:26:33.330Z,6.50
2022-12-09T03:28:21.321Z,7.18
2022-12-09T03:29:32.219Z,7.25
2022-12-09T03:30:45.479Z,7.85
2022-12-09T03:32:09.295Z,6.78
2022-12-09T03:33:29.847Z,6.75
2022-12-09T03:34:48.078Z,6.20
2022-12-09T03:35:58.327Z,7.25
2022-12-09T03:38:32.765Z,7.20
2022-12-09T03:39:19.967Z,7.57
2022-12-09T03:40:43.459Z,7.35
2022-12-09T03:41:57.303Z,7.13
2022-12-09T03:43:37.805Z,7.53
2022-12-09T03:45:08.289Z,7.60
2022-12-09T03:46:33.060Z,7.32
2022-12-09T03:47:53.035Z,7.25
2022-12-09T03:49:16.687Z,7.38
2022-12-09T03:50:34.966Z,5.55
2022-12-09T03:52:08.709Z,6.15
2022-12-09T03:53:22.682Z,6.95
2022-12-09T03:54:40.893Z,7.88
2022-12-09T03:56:48.118Z,5.95
2022-12-09T03:58:09.131Z,7.15
2022-12-09T03:59:29.500Z,7.00
2022-12-09T04:00:40.000Z,7.47
2022-12-09T04:01:58.266Z,7.07
2022-12-09T04:03:08.881Z,8.93
2022-12-09T04:04:17.913Z,6.75
2022-12-09T04:05:24.480Z,7.55
2022-12-09T04:06:29.385Z,7.18
2022-12-09T04:07:32.925Z,6.63
2022-12-09T04:08:37.192Z,8.18
2022-12-09T04:09:42.575Z,7.28
2022-12-09T04:10:47.022Z,6.07
2022-12-09T04:11:50.916Z,6.07
2022-12-09T04:12:54.603Z,6.47
2022-12-09T04:14:02.566Z,6.40
2022-12-09T04:15:07.787Z,7.53
2022-12-09T04:16:11.787Z,6.55
2022-12-09T04:17:15.468Z,7.05
2022-12-09T04:18:19.052Z,8.38
2022-12-09T04:19:22.551Z,8.35
2022-12-09T04:20:26.377Z,7.40
2022-12-09T04:21:30.093Z,6.70
2022-12-09T04:22:33.593Z,7.93
2022-12-09T04:23:42.509Z,6.60
2022-12-09T04:24:46.789Z,7.00
2022-12-09T04:25:50.491Z,5.68
2022-12-09T04:27:00.176Z,6.57
2022-12-09T04:28:04.200Z,6.80
2022-12-09T04:29:19.912Z,6.80
2022-12-09T04:30:23.543Z,7.40
2022-12-09T04:31:27.504Z,6.15
2022-12-09T04:32:32.047Z,6.28
2022-12-09T04:33:35.744Z,6.32
2022-12-09T04:34:39.464Z,7.45
2022-12-09T04:35:43.096Z,6.82
2022-12-09T04:36:46.512Z,6.20
2022-12-09T04:37:50.403Z,8.32
2022-12-09T04:38:57.145Z,6.63
2022-12-09T04:40:00.648Z,5.88
2022-12-09T04:41:05.684Z,7.75
2022-12-09T04:42:10.422Z,8.00
2022-12-09T04:43:14.619Z,6.57
2022-12-09T04:44:18.335Z,6.75
2022-12-09T04:45:22.121Z,6.53
2022-12-09T04:46:26.770Z,7.70
2022-12-09T04:47:30.385Z,5.78
2022-12-09T04:48:34.267Z,6.68
2022-12-09T04:49:38.227Z,6.95
2022-12-09T04:50:45.418Z,5.95
2022-12-09T04:51:52.642Z,6.60
2022-12-09T04:52:59.071Z,5.93
2022-12-09T04:54:03.101Z,7.35
2022-12-09T04:55:07.835Z,6.95
2022-12-09T04:56:19.065Z,5.72
2022-12-09T04:57:23.699Z,6.75
2022-12-09T04:58:28.429Z,7.80
2022-12-09T04:59:32.453Z,7.60
2022-12-09T05:00:36.177Z,8.02
2022-12-09T05:01:40.159Z,5.63
2022-12-09T05:02:44.781Z,6.72
2022-12-09T05:03:51.947Z,6.45
2022-12-09T05:04:56.315Z,7.32
2022-12-09T05:06:02.745Z,7.40
2022-12-09T05:07:06.916Z,6.05
2022-12-09T05:08:10.923Z,7.40
2022-12-09T05:09:15.277Z,6.93
2022-12-09T05:10:19.607Z,7.63
2022-12-09T05:11:24.973Z,7.45
2022-12-09T05:12:28.715Z,6.57
2022-12-09T05:13:34.325Z,8.18
2022-12-09T05:14:38.412Z,7.43
2022-12-09T05:15:42.403Z,7.47
2022-12-09T05:16:46.856Z,7.43
2022-12-09T05:17:50.629Z,6.53
2022-12-09T05:18:54.700Z,6.95
2022-12-09T05:19:58.618Z,6.97
2022-12-09T05:21:11.988Z,6.25
2022-12-09T05:22:19.516Z,6.43
2022-12-09T05:23:23.797Z,6.88
2022-12-09T05:24:27.843Z,7.13
2022-12-09T05:25:34.010Z,7.82
2022-12-09T05:26:40.048Z,8.52
2022-12-09T05:27:44.067Z,7.63
2022-12-09T05:28:48.272Z,7.57
2022-12-09T05:29:52.562Z,7.32
2022-12-09T05:31:04.871Z,6.93
2022-12-09T05:32:10.777Z,7.53
2022-12-09T05:33:15.887Z,7.93
2022-12-09T05:34:19.855Z,6.95
2022-12-09T05:35:23.748Z,7.13
2022-12-09T05:36:27.816Z,6.75
2022-12-09T05:37:32.296Z,6.60
2022-12-09T05:38:36.486Z,6.53
2022-12-09T05:39:40.277Z,7.07
2022-12-09T05:40:43.823Z,6.95
2022-12-09T05:41:47.951Z,5.13
2022-12-09T05:42:51.834Z,8.45
2022-12-09T05:43:56.633Z,6.38
2022-12-09T05:45:01.199Z,6.70
2022-12-09T05:46:06.815Z,6.97
2022-12-09T05:47:11.369Z,9.38
2022-12-09T05:48:18.714Z,10.07
2022-12-09T05:49:36.393Z,9.75
2022-12-09T05:50:41.159Z,10.50
2022-12-09T05:51:59.799Z,8.15
2022-12-09T05:53:14.609Z,9.73
2022-12-09T05:54:20.938Z,8.95
2022-12-09T05:55:25.014Z,9.48
2022-12-09T05:56:29.191Z,7.88
2022-12-09T05:57:35.306Z,7.15
2022-12-09T05:58:39.235Z,5.03
2022-12-09T05:59:43.147Z,7.00
2022-12-09T06:00:47.782Z,6.88
2022-12-09T06:01:51.689Z,6.15
2022-12-09T06:02:55.258Z,6.35
2022-12-09T06:03:59.001Z,6.85
2022-12-09T06:05:03.415Z,6.72
2022-12-09T06:06:31.487Z,6.18
2022-12-09T06:07:36.631Z,7.68
2022-12-09T06:08:42.749Z,7.70
2022-12-09T06:09:47.312Z,8.43
2022-12-09T06:10:51.581Z,7.07
2022-12-09T06:11:55.274Z,8.20
2022-12-09T06:12:58.935Z,8.65
2022-12-09T06:14:02.838Z,7.97
2022-12-09T06:15:10.454Z,7.38
2022-12-09T06:16:19.921Z,7.07
2022-12-09T06:17:24.184Z,6.45
2022-12-09T06:18:27.774Z,8.10
2022-12-09T06:19:31.854Z,8.27
2022-12-09T06:20:38.905Z,8.25
2022-12-09T06:21:43.098Z,7.05
2022-12-09T06:22:46.909Z,6.78
2022-12-09T06:23:51.654Z,9.75
2022-12-09T06:24:57.343Z,8.30
2022-12-09T06:26:00.896Z,6.68
2022-12-09T06:27:05.243Z,6.75
2022-12-09T06:28:09.346Z,6.75
2022-12-09T06:29:13.474Z,8.18
2022-12-09T06:30:17.397Z,8.00
2022-12-09T06:31:21.358Z,10.00
2022-12-09T06:32:26.055Z,6.20
2022-12-09T06:33:53.639Z,8.23
2022-12-09T06:34:53.755Z,7.25
2022-12-09T06:36:02.827Z,6.90
2022-12-09T06:37:06.410Z,7.25
2022-12-09T06:38:10.327Z,6.20
2022-12-09T06:39:14.381Z,6.78
2022-12-09T06:40:18.089Z,6.20
2022-12-09T06:41:21.950Z,6.65
2022-12-09T06:42:25.918Z,6.85
2022-12-09T06:43:30.108Z,7.10
2022-12-09T06:44:34.352Z,7.72
2022-12-09T06:45:38.919Z,7.68
2022-12-09T06:46:42.912Z,6.53
2022-12-09T06:47:48.305Z,9.25
2022-12-09T06:48:53.880Z,9.05
2022-12-09T06:50:06.533Z,9.07
2022-12-09T06:51:11.987Z,7.15
2022-12-09T06:52:15.960Z,7.80
2022-12-09T06:53:19.481Z,7.03
2022-12-09T06:54:23.705Z,8.05
2022-12-09T06:55:30.035Z,8.50
2022-12-09T06:56:34.020Z,7.97
2022-12-09T06:57:37.630Z,10.05
2022-12-09T06:58:45.079Z,7.82
2022-12-09T06:59:49.549Z,8.63
2022-12-09T07:00:53.275Z,7.82
2022-12-09T07:01:58.854Z,8.95
2022-12-09T07:03:02.844Z,6.75
2022-12-09T07:04:08.472Z,9.15
2022-12-09T07:05:13.021Z,8.13
2022-12-09T07:06:42.777Z,8.20
2022-12-09T07:07:54.611Z,9.18
2022-12-09T07:09:08.141Z,7.53
2022-12-09T07:10:12.204Z,7.57
2022-12-09T07:11:16.139Z,9.02
2022-12-09T07:12:20.738Z,8.63
2022-12-09T07:13:25.323Z,7.28
2022-12-09T07:14:28.892Z,10.45
2022-12-09T07:15:32.751Z,6.20
2022-12-09T07:16:37.477Z,7.97
2022-12-09T07:17:41.430Z,7.93
2022-12-09T07:18:45.479Z,9.30
2022-12-09T07:19:51.414Z,7.78
2022-12-09T07:20:55.220Z,6.90
2022-12-09T07:21:59.816Z,8.05
2022-12-09T07:23:03.581Z,8.63
2022-12-09T07:24:12.656Z,9.90
2022-12-09T07:25:16.320Z,8.65
2022-12-09T07:26:21.374Z,7.82
2022-12-09T07:27:25.108Z,9.25
2022-12-09T07:28:29.898Z,12.05
2022-12-09T07:29:35.399Z,8.88
2022-12-09T07:30:39.107Z,7.72
2022-12-09T07:31:43.240Z,8.75
2022-12-09T07:32:47.311Z,8.73
2022-12-09T07:33:53.553Z,9.15
2022-12-09T07:34:57.897Z,8.10
2022-12-09T07:36:01.749Z,8.90
2022-12-09T07:37:07.289Z,9.23
2022-12-09T07:38:10.952Z,8.13
2022-12-09T07:39:18.703Z,9.15
2022-12-09T07:40:22.252Z,7.72
2022-12-09T07:41:27.403Z,9.07
2022-12-09T07:42:31.296Z,8.27
2022-12-09T07:43:39.210Z,9.23
2022-12-09T07:44:43.068Z,8.38
2022-12-09T07:45:46.638Z,9.32
2022-12-09T07:46:52.158Z,8.60
2022-12-09T07:47:56.400Z,7.15
2022-12-09T07:49:04.837Z,8.80
2022-12-09T07:50:09.211Z,8.77
2022-12-09T07:51:12.827Z,8.40
2022-12-09T07:52:16.458Z,8.63
2022-12-09T07:53:19.989Z,8.65
2022-12-09T07:54:23.897Z,10.68
2022-12-09T07:55:28.199Z,9.15
2022-12-09T07:56:32.200Z,8.95
2022-12-09T07:57:38.445Z,9.73
2022-12-09T07:58:44.757Z,9.23
2022-12-09T07:59:48.785Z,8.30
2022-12-09T08:00:52.676Z,9.52
2022-12-09T08:02:01.092Z,9.95
2022-12-09T08:03:08.127Z,9.98
2022-12-09T08:04:13.157Z,8.02
2022-12-09T08:05:17.712Z,7.72
2022-12-09T08:06:26.164Z,9.65
2022-12-09T08:07:31.069Z,8.07
2022-12-09T08:08:35.685Z,8.63
2022-12-09T08:09:39.583Z,9.15
2022-12-09T08:10:44.682Z,9.20
2022-12-09T08:11:48.624Z,9.45
2022-12-09T08:12:52.453Z,9.13
2022-12-09T08:14:08.856Z,8.07
2022-12-09T08:15:17.052Z,9.50
2022-12-09T08:16:23.747Z,9.38
2022-12-09T08:17:29.794Z,9.15
2022-12-09T08:18:42.924Z,8.15
2022-12-09T08:19:46.884Z,7.25
2022-12-09T08:20:50.954Z,7.88
2022-12-09T08:21:54.993Z,9.18
2022-12-09T08:22:59.190Z,10.40
2022-12-09T08:24:06.043Z,8.55
2022-12-09T08:25:11.298Z,10.80
2022-12-09T08:26:19.214Z,8.00
2022-12-09T08:27:23.271Z,10.70
2022-12-09T08:28:27.667Z,8.10
2022-12-09T08:29:31.374Z,9.10
2022-12-09T08:30:37.658Z,9.80
2022-12-09T08:31:44.256Z,10.00
2022-12-09T08:32:48.553Z,10.38
2022-12-09T08:33:53.835Z,9.88
2022-12-09T08:34:57.688Z,10.32
2022-12-09T08:36:04.588Z,9.50
2022-12-09T08:37:08.671Z,10.98
2022-12-09T08:38:13.082Z,9.60
2022-12-09T08:39:16.927Z,11.25
2022-12-09T08:40:20.451Z,9.60
2022-12-09T08:41:38.490Z,9.85
2022-12-09T08:42:43.112Z,9.13
2022-12-09T08:43:48.374Z,9.85
2022-12-09T08:44:57.131Z,10.85
2022-12-09T08:46:08.697Z,11.05
2022-12-09T08:47:12.478Z,9.60
2022-12-09T08:48:16.780Z,10.63
2022-12-09T08:49:23.418Z,11.05
2022-12-09T08:50:27.395Z,10.75
2022-12-09T08:51:32.494Z,8.43
2022-12-09T08:52:40.901Z,10.65
2022-12-09T08:53:48.905Z,8.95
2022-12-09T08:54:53.010Z,12.00
2022-12-09T08:55:57.097Z,11.27
2022-12-09T08:57:04.589Z,11.07
2022-12-09T08:58:08.496Z,11.00
2022-12-09T08:59:12.421Z,12.35
2022-12-09T09:00:17.510Z,9.77
2022-12-09T09:01:37.403Z,10.75
2022-12-09T09:02:41.443Z,10.02
2022-12-09T09:03:47.063Z,9.52
2022-12-09T09:04:51.021Z,9.63
2022-12-09T09:06:08.702Z,11.45
2022-12-09T09:07:14.390Z,9.73
2022-12-09T09:08:20.465Z,12.77
2022-12-09T09:09:27.164Z,9.27
2022-12-09T09:10:31.221Z,10.85
2022-12-09T09:11:35.734Z,10.63
2022-12-09T09:12:43.495Z,12.32
2022-12-09T09:13:51.755Z,12.20
2022-12-09T09:14:55.568Z,11.77
2022-12-09T09:15:59.359Z,12.23
2022-12-09T09:17:03.534Z,10.30
2022-12-09T09:18:07.742Z,12.18
2022-12-09T09:19:29.601Z,13.38
2022-12-09T09:20:33.628Z,11.30
2022-12-09T09:21:37.384Z,11.07
2022-12-09T09:22:41.697Z,11.85
2022-12-09T09:23:46.125Z,10.82
2022-12-09T09:24:51.245Z,11.70
2022-12-09T09:25:54.906Z,11.18
2022-12-09T09:26:58.875Z,11.60
2022-12-09T09:28:02.957Z,12.38
2022-12-09T09:29:08.587Z,11.18
2022-12-09T09:30:12.949Z,10.85
2022-12-09T09:31:21.212Z,10.82
2022-12-09T09:32:24.866Z,10.35
2022-12-09T09:33:29.940Z,11.07
2022-12-09T09:34:33.773Z,10.90
2022-12-09T09:35:37.947Z,9.45
2022-12-09T09:36:42.382Z,11.10
2022-12-09T09:37:46.489Z,10.75
2022-12-09T09:38:57.620Z,10.07
2022-12-09T09:40:02.603Z,10.43
2022-12-09T09:41:48.751Z,11.00
2022-12-09T09:42:56.833Z,11.73
2022-12-09T09:44:02.028Z,10.10
2022-12-09T09:45:15.226Z,10.32
2022-12-09T09:46:44.983Z,10.95
2022-12-09T09:47:56.730Z,10.43
2022-12-09T09:49:02.553Z,12.00
2022-12-09T09:50:27.731Z,11.93
2022-12-09T09:51:35.764Z,10.25
2022-12-09T09:52:42.820Z,9.77
2022-12-09T09:53:53.437Z,9.90
2022-12-09T09:54:58.686Z,11.20
2022-12-09T09:56:35.318Z,10.20
2022-12-09T09:58:00.261Z,10.90
2022-12-09T09:59:42.016Z,10.57
2022-12-09T10:01:08.538Z,10.95
2022-12-09T10:02:12.674Z,8.90
2022-12-09T10:03:48.743Z,10.23
2022-12-09T10:05:19.735Z,10.63
2022-12-09T10:06:50.899Z,9.93
2022-12-09T10:08:32.798Z,10.73
2022-12-09T10:10:15.683Z,8.77
2022-12-09T10:11:49.560Z,8.77
2022-12-09T10:13:08.224Z,8.25
2022-12-09T10:14:28.797Z,8.25
2022-12-09T10:16:06.392Z,10.77
2022-12-09T10:17:48.976Z,8.63
2022-12-09T10:19:20.681Z,8.57
2022-12-09T10:20:30.639Z,6.22
2022-12-09T10:21:42.627Z,8.32
2022-12-09T10:22:56.871Z,6.28
2022-12-09T10:24:48.488Z,6.90
2022-12-09T10:26:00.370Z,6.30
2022-12-09T10:27:35.099Z,7.55
2022-12-09T10:28:48.417Z,7.57
2022-12-09T10:30:03.603Z,6.95
2022-12-09T10:31:10.448Z,6.13
2022-12-09T10:32:20.663Z,6.25
2022-12-09T10:33:37.232Z,4.75
2022-12-09T10:34:44.471Z,4.90
2022-12-09T10:35:49.566Z,5.68
2022-12-09T10:36:53.802Z,5.88
2022-12-09T10:38:11.815Z,5.00
2022-12-09T10:39:22.020Z,6.05
2022-12-09T10:40:46.977Z,6.47
2022-12-09T10:42:18.161Z,5.45
2022-12-09T10:43:39.534Z,4.90
2022-12-09T10:44:43.907Z,4.97
2022-12-09T10:47:29.501Z,5.07
2022-12-09T10:48:49.423Z,6.07
2022-12-09T10:49:56.166Z,4.50
2022-12-09T10:51:17.639Z,4.88
2022-12-09T10:52:31.713Z,5.20
2022-12-09T10:53:36.162Z,5.22
2022-12-09T10:54:44.878Z,6.25
2022-12-09T10:55:54.784Z,5.05
2022-12-09T10:57:13.846Z,4.20
2022-12-09T10:58:31.810Z,5.15
2022-12-09T10:59:36.954Z,5.40
2022-12-09T11:00:57.674Z,3.67
2022-12-09T11:02:09.137Z,4.20
2022-12-09T11:03:31.558Z,4.68
2022-12-09T11:04:44.172Z,4.18
2022-12-09T11:06:03.257Z,4.22
2022-12-09T11:07:13.262Z,4.45
2022-12-09T11:08:23.156Z,4.38
2022-12-09T11:09:38.679Z,4.88
2022-12-09T11:10:51.207Z,6.90
2022-12-09T11:11:55.086Z,5.47
2022-12-09T11:13:08.990Z,4.22
2022-12-09T11:14:40.601Z,4.72
2022-12-09T11:15:54.540Z,5.75
2022-12-09T11:17:18.678Z,4.60
2022-12-09T11:18:47.134Z,4.70
2022-12-09T11:20:22.508Z,5.97
2022-12-09T11:21:37.878Z,5.20
2022-12-09T11:22:45.037Z,5.00
2022-12-09T11:24:02.511Z,3.45
2022-12-09T11:25:13.371Z,3.45
2022-12-09T11:26:35.075Z,4.13
2022-12-09T11:27:42.075Z,3.45
2022-12-09T11:28:45.992Z,4.00
2022-12-09T11:30:13.940Z,3.92
2022-12-09T11:31:30.564Z,3.05
2022-12-09T11:32:55.819Z,4.43
2022-12-09T11:34:14.413Z,3.88
2022-12-09T11:35:25.153Z,3.33
2022-12-09T11:36:44.386Z,4.75
2022-12-09T11:37:48.596Z,2.58
2022-12-09T11:39:09.674Z,2.60
2022-12-09T11:40:19.247Z,2.47
2022-12-09T11:41:44.993Z,4.13
2022-12-09T11:42:58.021Z,3.25
2022-12-09T11:44:02.717Z,3.80
2022-12-09T11:45:31.804Z,3.45
2022-12-09T11:46:36.943Z,3.40
2022-12-09T11:48:23.008Z,3.50
2022-12-09T11:49:17.296Z,4.68
2022-12-09T11:50:25.509Z,4.78
2022-12-09T11:52:18.944Z,3.83
2022-12-09T11:53:32.089Z,3.88
2022-12-09T11:54:58.757Z,3.08
2022-12-09T11:56:27.918Z,3.80
2022-12-09T11:57:43.452Z,3.63
2022-12-09T11:59:14.668Z,2.92
2022-12-09T12:00:21.075Z,3.78
2022-12-09T12:01:46.536Z,2.72
2022-12-09T12:03:20.848Z,3.45
2022-12-09T12:04:35.540Z,3.15
2022-12-09T12:05:47.913Z,3.80
2022-12-09T12:07:03.646Z,3.50
2022-12-09T12:08:43.831Z,2.60
2022-12-09T12:09:56.172Z,2.78
2022-12-09T12:11:14.903Z,3.17
2022-12-09T12:12:43.698Z,3.00
2022-12-09T12:13:49.482Z,2.95
2022-12-09T12:14:56.608Z,3.50
2022-12-09T12:16:13.911Z,2.90
2022-12-09T12:17:24.949Z,2.92
2022-12-09T12:18:36.403Z,3.70
2022-12-09T12:19:43.720Z,2.97
2022-12-09T12:21:17.167Z,3.33
2022-12-09T12:22:51.607Z,2.45
2022-12-09T12:24:28.573Z,2.80
2022-12-09T12:25:53.182Z,3.60
2022-12-09T12:27:15.123Z,3.55
2022-12-09T12:28:28.865Z,3.35
2022-12-09T12:29:48.604Z,4.00
2022-12-09T12:31:32.072Z,3.17
2022-12-09T12:34:54.679Z,3.15
2022-12-09T12:36:22.897Z,2.70
2022-12-09T12:38:03.275Z,4.35
2022-12-09T12:39:45.662Z,3.28
2022-12-09T12:41:26.243Z,3.90
2022-12-09T12:43:06.837Z,3.30
2022-12-09T12:44:47.538Z,2.97
2022-12-09T12:46:20.019Z,3.30
2022-12-09T12:47:45.239Z,3.75
2022-12-09T12:49:20.586Z,3.38
2022-12-09T12:51:24.944Z,3.78
2022-12-09T12:52:57.788Z,3.47
2022-12-09T12:54:48.961Z,3.75
2022-12-09T12:56:00.247Z,3.50
2022-12-09T12:57:22.348Z,2.78
2022-12-09T12:58:46.966Z,4.15
2022-12-09T13:00:24.557Z,3.53
2022-12-09T13:02:00.511Z,3.95
2022-12-09T13:03:26.209Z,4.45
2022-12-09T13:04:46.404Z,3.40
2022-12-09T13:05:54.437Z,3.50
2022-12-09T13:07:12.116Z,3.50
2022-12-09T13:08:35.598Z,4.43
2022-12-09T13:09:58.170Z,4.55
2022-12-09T13:11:22.748Z,4.50
2022-12-09T13:12:54.798Z,4.57
2022-12-09T13:14:06.587Z,3.70
2022-12-09T13:15:19.335Z,5.13
2022-12-09T13:16:39.589Z,4.70
2022-12-09T13:17:46.894Z,3.85
2022-12-09T13:18:50.848Z,4.97
2022-12-09T13:20:02.238Z,4.30
2022-12-09T13:21:07.603Z,4.00
2022-12-09T13:22:27.717Z,4.13
2022-12-09T13:23:57.348Z,4.55
2022-12-09T13:25:33.221Z,5.20
2022-12-09T13:27:26.952Z,3.65
2022-12-09T13:29:13.131Z,3.35
2022-12-09T13:30:27.305Z,4.40
2022-12-09T13:31:35.267Z,4.45
2022-12-09T13:33:12.854Z,3.42
2022-12-09T13:34:40.823Z,3.50
2022-12-09T13:36:15.149Z,3.55
2022-12-09T13:37:45.191Z,3.25
2022-12-09T13:38:49.156Z,4.13
2022-12-09T13:39:58.497Z,3.25
2022-12-09T13:41:30.725Z,4.15
2022-12-09T13:42:53.601Z,3.85
2022-12-09T13:44:11.727Z,3.80
2022-12-09T13:45:36.847Z,4.70
2022-12-09T13:46:47.644Z,4.18
2022-12-09T13:47:56.659Z,5.70
2022-12-09T13:49:11.945Z,3.10
2022-12-09T13:50:32.375Z,3.65
2022-12-09T13:51:48.958Z,4.75
2022-12-09T13:52:57.860Z,3.95
2022-12-09T13:54:04.570Z,3.40
2022-12-09T13:55:54.069Z,3.40
2022-12-09T13:57:39.891Z,4.00
2022-12-09T13:59:21.378Z,3.50
2022-12-09T14:00:25.218Z,4.95
2022-12-09T14:01:42.115Z,3.50
2022-12-09T14:03:12.384Z,3.92
2022-12-09T14:04:30.426Z,3.65
2022-12-09T14:05:37.295Z,3.67
2022-12-09T14:06:46.359Z,3.92
2022-12-09T14:08:07.256Z,3.67
2022-12-09T14:09:56.357Z,4.07
2022-12-09T14:11:52.799Z,3.63
2022-12-09T14:12:56.069Z,5.05
2022-12-09T14:14:24.957Z,4.25
2022-12-09T14:15:28.642Z,4.03
2022-12-09T14:16:35.046Z,4.75
2022-12-09T14:17:38.977Z,3.88
2022-12-09T14:18:43.520Z,3.95
2022-12-09T14:20:39.098Z,4.22
2022-12-09T14:21:42.686Z,3.75
2022-12-09T14:23:12.637Z,4.40
2022-12-09T14:24:16.901Z,3.28
2022-12-09T14:25:26.572Z,3.33
2022-12-09T14:26:59.272Z,3.25
2022-12-09T14:28:24.375Z,4.63
2022-12-09T14:29:50.124Z,3.67
2022-12-09T14:31:04.741Z,3.05
2022-12-09T14:32:42.250Z,4.07
2022-12-09T14:33:47.538Z,3.40
2022-12-09T14:35:11.429Z,4.72
2022-12-09T14:36:14.856Z,3.97
2022-12-09T14:37:53.384Z,4.68
2022-12-09T14:39:27.493Z,4.07
2022-12-09T14:41:36.616Z,4.35
2022-12-09T14:42:53.354Z,3.63
2022-12-09T14:44:27.070Z,4.47
2022-12-09T14:46:02.009Z,4.03
2022-12-09T14:47:31.339Z,3.33
2022-12-09T14:48:41.070Z,3.47
2022-12-09T14:49:49.077Z,4.82
2022-12-09T14:51:21.769Z,4.25
2022-12-09T14:52:33.131Z,4.32
2022-12-09T14:53:38.464Z,4.57
2022-12-09T14:54:48.508Z,3.92
2022-12-09T14:55:52.476Z,3.20
2022-12-09T14:57:00.964Z,3.95
2022-12-09T14:58:05.603Z,3.25
2022-12-09T14:59:18.390Z,3.63
2022-12-09T15:00:41.807Z,4.78
2022-12-09T15:02:00.106Z,3.65
2022-12-09T15:03:33.349Z,3.53
2022-12-09T15:04:47.574Z,3.63
2022-12-09T15:06:02.931Z,5.80
2022-12-09T15:07:08.307Z,3.83
2022-12-09T15:08:35.853Z,3.53
2022-12-09T15:10:02.471Z,3.25
2022-12-09T15:11:20.302Z,4.43
2022-12-09T15:12:45.323Z,4.35
2022-12-09T15:13:53.977Z,4.53
2022-12-09T15:15:04.005Z,4.32
2022-12-09T15:16:12.375Z,4.30
2022-12-09T15:17:33.090Z,4.25
2022-12-09T15:18:40.616Z,4.13
2022-12-09T15:20:00.799Z,3.70
2022-12-09T15:21:08.502Z,4.18
2022-12-09T15:22:24.568Z,4.28
2022-12-09T15:23:34.807Z,4.60
2022-12-09T15:24:50.052Z,3.70
2022-12-09T15:25:57.715Z,3.97
2022-12-09T15:27:03.956Z,4.35
2022-12-09T15:28:25.889Z,4.32
2022-12-09T15:29:33.914Z,4.38
2022-12-09T15:30:38.424Z,4.05
2022-12-09T15:31:50.045Z,3.90
2022-12-09T15:32:53.481Z,5.22
2022-12-09T15:34:14.484Z,5.22
2022-12-09T15:35:26.578Z,4.22
2022-12-09T15:36:40.298Z,3.97
2022-12-09T15:37:45.542Z,4.30
2022-12-09T15:39:20.552Z,5.03
2022-12-09T15:40:29.543Z,5.50
2022-12-09T15:42:09.636Z,4.35
2022-12-09T15:43:15.835Z,4.53
2022-12-09T15:44:24.110Z,3.83
2022-12-09T15:45:37.339Z,4.43
2022-12-09T15:46:45.357Z,4.47
2022-12-09T15:48:18.169Z,4.00
2022-12-09T15:49:29.486Z,4.07
2022-12-09T15:50:49.869Z,3.97
2022-12-09T15:51:56.563Z,3.50
2022-12-09T15:53:34.551Z,3.70
2022-12-09T15:54:46.017Z,4.80
2022-12-09T15:56:11.875Z,3.97
2022-12-09T15:57:22.649Z,5.35
2022-12-09T15:58:39.682Z,4.95
2022-12-09T15:59:55.358Z,4.47
2022-12-09T16:00:59.854Z,4.07
2022-12-09T16:02:04.617Z,5.03
2022-12-09T16:03:09.526Z,4.78
2022-12-09T16:04:21.457Z,4.47
2022-12-09T16:05:41.857Z,3.88
2022-12-09T16:06:50.918Z,3.58
2022-12-09T16:07:59.569Z,5.15
2022-12-09T16:09:25.070Z,4.65
2022-12-09T16:10:58.228Z,4.55
2022-12-09T16:12:24.077Z,3.60
2022-12-09T16:13:35.763Z,4.18
2022-12-09T16:14:45.578Z,4.35
2022-12-09T16:15:58.640Z,4.47
2022-12-09T16:17:04.397Z,3.38
2022-12-09T16:18:34.704Z,5.20
2022-12-09T16:19:38.596Z,5.20
2022-12-09T16:20:45.671Z,3.33